Main page
METAR-TAF:

METAR-TAF

Airports :

Rørvik Airport. Ryum

Rørvik, Norway

latitude: 64-50N, longitude: 011-09E, elevation: 4 m

Current weather observation

The report was made 19 minutes ago, at 13:20 UTC
Wind 14 kt from the Southeast
Temperature 0°C
Humidity 55%
Pressure 993 hPa
Visibility 10 km or more
Scattered clouds at a height of 3000 ft
Broken clouds at a height of 5500 ft
showers in vicinity

METAR: ENRM 281320Z 14014KT 9999 VCSH SCT030 BKN055 M00/M08 Q0993

Time: 14:39 (13:39 UTC)

Forecast

The report was made 2 hours and 39 minutes ago, at 11:00 UTC
Forecast valid from 28 at 12 UTC to 28 at 21 UTC
Wind 15 kt from the Southeast
Visibility 10 km or more
no clouds below 1500 m and no cumulonimbus
Temporary
from 28 at 13 UTC to 28 at 21 UTC
Wind 15 kt from the South with gusts up to 25 kt
Visibility: 1500 m
at a height of 900 ft
snow showers

TAF: ENRM 281100Z 2812/2821 14015KT CAVOK TEMPO 2813/2821 19015G25KT 1500 SHSN VV009

Weather observations and forecasts of more than 4000 airports (METAR and TAF reports).

The available stations are represented by yellow and red dots on the map.

Hover mouse over dot to see the name of the station.

Then click to see weather observations and forecasts.

To change the map : click on the green buttons with a black cross to zoom in, on the green button with a dash to zoom out, or on the green arrows for adjacent maps.


METAR-TAF: